X  Close Metar Aviation Weather Data     KSLC Salt Lake City International Airport
Temperature
64°F Temperature
30°F Dewpoint
28% Humidity



Wind
10 MPH
16 KM/H
4 M/S
9 KTS



170°
S
Current Conditions

Partly Cloudy Partly Cloudy
Pressure 1011.85 (hPa) - 29.88 (inHg)
Visibility 10 (mile) - 16.1 (km)
Airport
Airport-code KSLC

Location: Salt Lake City International Airport
Distance: 15 (mi)

Metar:
KSLC 130554Z 17009KT 10SM FEW130 SCT190 18/M01 A2988 RMK AO2 SLP071 T01831011 10256 20183 51015

Time: 2024-04-13 05:54 MDT